Terminal Aerodrome Forecast
Issued by NWS

Home | Current Version | Previous Version | Text Only | Print | Product List | Glossary On
Versions: 1 2 3 4 5 6 7 8 9 10 11 12 13 14 15 16 17 18 19 20 21
000
FTUS42 TJSJ 222300 RRA
TAFKPK
TAF
TKPK 222340Z 2300/2324 07010KT P6SM VCSH FEW020 BKN080
     FM231600 08015G23KT P6SM FEW022 BKN060
     FM232300 07012KT P6SM FEW020
      AMD NOT SKED 2302/2311=

USA.gov is the U.S. government's official web portal to all federal, state and local government web resources and services.